Broken Hill, New South Wales

1:40 PM EST on August 22, 2014 (GMT +1000)
Broken Hill | Change Station
CLOSE
Current Station
Airport
Location: Broken Hill Airport, NSW,
Elevation: 958 ft
Nearby Weather Stations

Elev 958 ft 32.00 °S, 141.47 °E | Updated 40 minutes ago

Clear
Clear
64 °F
Feels Like 64 °F
N
9
Wind Variable Wind from NE

Today
High -- | Low -- °F
--% Chance of Precip.
Yesterday
High -- | Low -- °F
Precip. -- in
7:03 AM 6:11 PM
Waning Crescent, 10% visible
Pressure 30.27 in
Visibility 6.2 miles
Clouds
Dew Point 39 °F
Humidity 40%
Rainfall 0.00 in
Snow Depth Not available.
UV Not available.
Pollen Not available.
Air Quality Not available.
Flu Activity Not available.
METAR YBHI 220300Z AUTO 04008KT 9999 // NCD 18/04 Q1025

More Conditions Fewer Conditions

Pressure 30.27 in
Visibility 6.2 miles
Clouds
Dew Point 39 °F
Humidity 40%
Rainfall 0.00 in
Snow Depth Not available.
UV Not available.
Pollen Not available.
Air Quality Not available.
Flu Activity Not available.
METAR YBHI 220300Z AUTO 04008KT 9999 // NCD 18/04 Q1025

More Conditions Fewer Conditions

10-Day Weather Forecast

Almanac

Astronomy

Aug. 22, 2014 Rise Set
Actual Time 7:03 AM EST 6:11 PM EST
Civil Twilight 6:38 AM EST 6:36 PM EST
Nautical Twilight 6:09 AM EST 7:04 PM EST
Astronomical Twilight 5:41 AM EST 7:33 PM EST
Moon 4:30 AM EST 3:21 PM EST
Length of Visible Light 11h 57m
Length of Day
11h 07m
Tomorrow will be 1m 46s longer.
Waning Crescent, 10% of the Moon is Illuminated
Aug 21
Waning Crescent
Aug 25
New
Sep 2
First Quarter
Sep 8
Full
Sep 15
Last Quarter

Yesterday's Extremes

Country Highs Country Lows

Community

WunderPhotos

Upload Photos

1,746,127 photos uploaded!

Nearby

Snow Depth

Not available.

Earthquake Activity

City Distance Mag. Time & Date
No recent earthquake activity has been reported nearby.
Minimum magnitude displayed is 2.5.

Coastal Water Temperatures

Place Temperature
No Stations Reporting

Nearby Weather Stations